createdAt,value
2022-09-15T00:02:20.891Z,14.33
2022-09-15T00:04:47.464Z,14.26
2022-09-15T00:07:14.176Z,14.17
2022-09-15T00:09:40.777Z,14.20
2022-09-15T00:12:07.328Z,14.23
2022-09-15T00:14:33.768Z,14.32
2022-09-15T00:17:00.280Z,14.40
2022-09-15T00:19:26.966Z,14.40
2022-09-15T00:21:53.612Z,14.34
2022-09-15T00:24:20.116Z,14.21
2022-09-15T00:26:46.627Z,14.25
2022-09-15T00:29:13.071Z,14.26
2022-09-15T00:31:39.616Z,14.09
2022-09-15T00:34:07.232Z,14.06
2022-09-15T00:36:34.111Z,14.06
2022-09-15T00:39:00.976Z,14.04
2022-09-15T00:41:28.124Z,14.02
2022-09-15T00:44:06.421Z,14.04
2022-09-15T00:46:39.881Z,13.94
2022-09-15T00:49:11.414Z,14.00
2022-09-15T00:51:54.982Z,13.99
2022-09-15T00:54:28.558Z,14.07
2022-09-15T00:56:57.080Z,14.02
2022-09-15T00:59:25.572Z,14.09
2022-09-15T01:02:11.437Z,14.15
2022-09-15T01:04:38.006Z,14.18
2022-09-15T01:07:05.871Z,14.28
2022-09-15T01:09:39.633Z,14.11
2022-09-15T01:12:06.274Z,14.12
2022-09-15T01:14:32.697Z,14.05
2022-09-15T01:17:06.850Z,14.01
2022-09-15T01:20:07.714Z,14.05
2022-09-15T01:22:56.055Z,14.00
2022-09-15T01:25:35.249Z,14.04
2022-09-15T01:28:39.039Z,14.01
2022-09-15T01:31:57.065Z,13.93
2022-09-15T01:34:24.556Z,13.94
2022-09-15T01:36:55.763Z,13.89
2022-09-15T01:39:27.067Z,13.91
2022-09-15T01:41:57.127Z,13.91
2022-09-15T01:44:28.145Z,13.92
2022-09-15T01:46:58.310Z,13.90
2022-09-15T01:49:27.029Z,13.92
2022-09-15T01:51:54.384Z,13.96
2022-09-15T01:54:28.889Z,13.94
2022-09-15T01:56:55.766Z,13.92
2022-09-15T01:59:22.318Z,14.00
2022-09-15T02:01:53.747Z,13.97
2022-09-15T02:04:27.844Z,13.93
2022-09-15T02:07:11.636Z,13.87
2022-09-15T02:10:02.144Z,13.81
2022-09-15T02:12:56.472Z,13.82
2022-09-15T02:15:51.626Z,13.86
2022-09-15T02:18:24.170Z,13.79
2022-09-15T02:20:53.689Z,13.82
2022-09-15T02:23:26.187Z,13.84
2022-09-15T02:26:06.389Z,13.85
2022-09-15T02:28:35.753Z,13.93
2022-09-15T02:31:03.633Z,13.94
2022-09-15T02:33:34.956Z,13.90
2022-09-15T02:36:02.417Z,13.92
2022-09-15T02:38:34.310Z,13.89
2022-09-15T02:41:01.229Z,13.88
2022-09-15T02:43:28.056Z,13.80
2022-09-15T02:45:55.155Z,13.76
2022-09-15T02:48:21.963Z,13.66
2022-09-15T02:50:48.391Z,13.66
2022-09-15T02:53:14.829Z,13.67
2022-09-15T02:55:41.964Z,13.62
2022-09-15T02:58:08.550Z,13.57
2022-09-15T03:00:35.018Z,13.57
2022-09-15T03:03:01.555Z,13.51
2022-09-15T03:05:29.490Z,13.45
2022-09-15T03:07:56.559Z,13.43
2022-09-15T03:10:24.471Z,13.41
2022-09-15T03:12:52.468Z,13.41
2022-09-15T03:15:21.466Z,13.40
2022-09-15T03:17:48.525Z,13.28
2022-09-15T03:20:18.607Z,13.36
2022-09-15T03:22:45.140Z,13.35
2022-09-15T03:25:11.700Z,13.28
2022-09-15T03:27:38.292Z,13.32
2022-09-15T03:30:06.270Z,13.38
2022-09-15T03:32:33.002Z,13.31
2022-09-15T03:34:59.631Z,13.24
2022-09-15T03:37:26.193Z,13.30
2022-09-15T03:39:52.698Z,13.24
2022-09-15T03:42:19.796Z,13.16
2022-09-15T03:44:46.230Z,13.14
2022-09-15T03:47:13.211Z,13.18
2022-09-15T03:49:39.682Z,13.20
2022-09-15T03:52:06.138Z,13.21
2022-09-15T03:54:32.664Z,13.20
2022-09-15T03:56:59.120Z,13.16
2022-09-15T03:59:25.545Z,13.20
2022-09-15T04:01:52.282Z,13.18
2022-09-15T04:04:18.775Z,13.22
2022-09-15T04:06:45.240Z,13.23
2022-09-15T04:09:11.779Z,13.22
2022-09-15T04:11:39.452Z,13.19
2022-09-15T04:14:05.892Z,13.17
2022-09-15T04:16:32.563Z,13.23
2022-09-15T04:18:59.338Z,13.18
2022-09-15T04:21:26.757Z,13.21
2022-09-15T04:23:54.015Z,13.17
2022-09-15T04:26:30.035Z,13.09
2022-09-15T04:29:00.510Z,13.14
2022-09-15T04:31:29.841Z,13.08
2022-09-15T04:33:57.207Z,13.20
2022-09-15T04:36:25.850Z,13.12
2022-09-15T04:38:52.834Z,13.09
2022-09-15T04:41:19.829Z,13.15
2022-09-15T04:43:46.913Z,13.09
2022-09-15T04:46:14.223Z,13.10
2022-09-15T04:48:41.433Z,13.09
2022-09-15T04:51:11.542Z,13.05
2022-09-15T04:53:38.337Z,13.08
2022-09-15T04:56:06.538Z,13.13
2022-09-15T04:58:44.067Z,13.14
2022-09-15T05:01:13.354Z,13.16
2022-09-15T05:03:40.502Z,13.15
2022-09-15T05:06:09.088Z,13.09
2022-09-15T05:08:35.690Z,13.10
2022-09-15T05:11:04.618Z,13.12
2022-09-15T05:13:32.108Z,13.19
2022-09-15T05:16:04.966Z,13.18
2022-09-15T05:18:33.229Z,13.26
2022-09-15T05:21:00.925Z,13.15
2022-09-15T05:23:27.874Z,13.16
2022-09-15T05:25:58.730Z,13.13
2022-09-15T05:28:25.181Z,13.18
2022-09-15T05:30:52.776Z,13.30
2022-09-15T05:33:20.315Z,13.29
2022-09-15T05:35:51.707Z,13.44
2022-09-15T05:38:18.212Z,13.38
2022-09-15T05:40:44.910Z,13.45
2022-09-15T05:43:11.349Z,13.52
2022-09-15T05:45:37.853Z,13.55
2022-09-15T05:48:04.681Z,13.59
2022-09-15T05:50:32.036Z,13.60
2022-09-15T05:52:58.595Z,13.60
2022-09-15T05:55:25.116Z,13.69
2022-09-15T05:57:51.647Z,13.61
2022-09-15T06:00:19.025Z,13.71
2022-09-15T06:02:45.660Z,13.66
2022-09-15T06:05:12.154Z,13.61
2022-09-15T06:07:39.039Z,13.73
2022-09-15T06:10:06.080Z,13.79
2022-09-15T06:12:33.063Z,13.77
2022-09-15T06:14:59.867Z,13.82
2022-09-15T06:17:26.478Z,14.03
2022-09-15T06:19:53.247Z,14.15
2022-09-15T06:22:19.908Z,14.13
2022-09-15T06:24:46.440Z,14.28
2022-09-15T06:27:12.932Z,14.28
2022-09-15T06:29:39.337Z,14.34
2022-09-15T06:32:06.154Z,14.36
2022-09-15T06:34:33.084Z,14.47
2022-09-15T06:36:59.989Z,14.57
2022-09-15T06:39:27.048Z,14.48
2022-09-15T06:42:02.371Z,14.57
2022-09-15T06:44:31.863Z,14.86
2022-09-15T06:46:58.428Z,14.81
2022-09-15T06:49:25.313Z,14.98
2022-09-15T06:51:51.916Z,14.93
2022-09-15T06:54:18.514Z,15.15
2022-09-15T06:56:45.115Z,15.18
2022-09-15T06:59:12.759Z,15.17
2022-09-15T07:01:39.615Z,15.17
2022-09-15T07:04:08.493Z,15.30
2022-09-15T07:06:35.187Z,15.65
2022-09-15T07:09:02.700Z,15.91
2022-09-15T07:11:29.864Z,16.87
2022-09-15T07:13:57.061Z,17.81
2022-09-15T07:16:25.881Z,18.16
2022-09-15T07:18:55.195Z,18.38
2022-09-15T07:21:21.794Z,18.94
2022-09-15T07:23:49.249Z,18.92
2022-09-15T07:26:18.539Z,17.61
2022-09-15T07:28:49.944Z,17.93
2022-09-15T07:31:18.777Z,17.82
2022-09-15T07:33:48.230Z,19.18
2022-09-15T07:36:18.033Z,19.67
2022-09-15T07:38:46.676Z,18.83
2022-09-15T07:41:16.084Z,18.08
2022-09-15T07:43:49.716Z,19.28
2022-09-15T07:46:17.680Z,22.26
2022-09-15T07:48:49.092Z,24.35
2022-09-15T07:51:16.760Z,26.06
2022-09-15T07:53:44.594Z,26.09
2022-09-15T07:56:11.521Z,27.18
2022-09-15T07:58:37.979Z,27.23
2022-09-15T08:01:07.281Z,25.42
2022-09-15T08:03:34.105Z,24.69
2022-09-15T08:06:01.703Z,22.66
2022-09-15T08:08:28.928Z,23.54
2022-09-15T08:10:55.817Z,25.51
2022-09-15T08:13:22.559Z,27.27
2022-09-15T08:15:49.280Z,27.55
2022-09-15T08:18:16.252Z,27.73
2022-09-15T08:20:43.819Z,26.60
2022-09-15T08:23:11.238Z,25.55
2022-09-15T08:25:40.618Z,22.79
2022-09-15T08:28:07.126Z,22.38
2022-09-15T08:30:33.655Z,21.48
2022-09-15T08:33:00.276Z,20.99
2022-09-15T08:35:26.734Z,21.11
2022-09-15T08:37:55.308Z,21.33
2022-09-15T08:40:32.378Z,20.79
2022-09-15T08:43:03.822Z,20.35
2022-09-15T08:45:40.266Z,20.49
2022-09-15T08:48:08.451Z,20.49
2022-09-15T08:50:44.803Z,20.59
2022-09-15T08:53:17.825Z,20.47
2022-09-15T08:55:48.727Z,20.11
2022-09-15T08:58:18.024Z,20.26
2022-09-15T09:00:46.059Z,20.21
2022-09-15T09:03:33.949Z,19.90
2022-09-15T09:06:10.540Z,19.45
2022-09-15T09:09:15.587Z,19.14
2022-09-15T09:11:48.305Z,18.93
2022-09-15T09:14:48.475Z,18.95
2022-09-15T09:18:08.217Z,19.14
2022-09-15T09:20:53.772Z,19.52
2022-09-15T09:23:24.025Z,19.31
2022-09-15T09:25:52.109Z,19.12
2022-09-15T09:28:32.829Z,19.07
2022-09-15T09:31:07.858Z,19.21
2022-09-15T09:33:47.359Z,19.01
2022-09-15T09:36:14.715Z,19.00
2022-09-15T09:38:44.160Z,19.11
2022-09-15T09:41:25.503Z,18.90
2022-09-15T09:43:55.759Z,19.01
2022-09-15T09:46:22.568Z,19.38
2022-09-15T09:48:54.829Z,19.37
2022-09-15T09:51:37.276Z,19.70
2022-09-15T09:54:11.827Z,19.52
2022-09-15T09:56:39.089Z,19.05
2022-09-15T09:59:05.725Z,19.46
2022-09-15T10:01:32.483Z,19.33
2022-09-15T10:04:19.284Z,19.39
2022-09-15T10:06:46.554Z,19.16
2022-09-15T10:09:18.076Z,18.76
2022-09-15T10:11:50.379Z,18.79
2022-09-15T10:14:22.208Z,19.00
2022-09-15T10:17:07.895Z,19.10
2022-09-15T10:19:55.188Z,19.13
2022-09-15T10:22:32.513Z,18.85
2022-09-15T10:25:01.039Z,18.74
2022-09-15T10:27:32.705Z,18.79
2022-09-15T10:30:12.473Z,18.98
2022-09-15T10:32:39.509Z,19.33
2022-09-15T10:35:18.609Z,19.06
2022-09-15T10:37:59.866Z,18.81
2022-09-15T10:40:33.724Z,18.76
2022-09-15T10:43:02.907Z,18.56
2022-09-15T10:45:39.905Z,18.51
2022-09-15T10:48:16.481Z,18.52
2022-09-15T10:51:02.344Z,18.53
2022-09-15T10:53:49.053Z,18.39
2022-09-15T10:56:18.303Z,18.11
2022-09-15T10:58:56.962Z,18.30
2022-09-15T11:01:29.417Z,18.10
2022-09-15T11:04:11.485Z,17.86
2022-09-15T11:06:49.175Z,17.86
2022-09-15T11:09:23.114Z,17.72
2022-09-15T11:11:55.107Z,17.67
2022-09-15T11:14:40.567Z,17.76
2022-09-15T11:17:29.133Z,17.93
2022-09-15T11:20:08.023Z,18.20
2022-09-15T11:22:39.119Z,18.39
2022-09-15T11:25:13.770Z,18.64
2022-09-15T11:27:43.932Z,18.85
2022-09-15T11:30:17.945Z,18.94
2022-09-15T11:33:05.689Z,18.71
2022-09-15T11:35:54.516Z,18.38
2022-09-15T11:38:48.338Z,18.40
2022-09-15T11:41:19.157Z,18.37
2022-09-15T11:43:58.217Z,18.21
2022-09-15T11:46:45.718Z,18.15
2022-09-15T11:49:18.103Z,18.07
2022-09-15T11:51:52.623Z,18.12
2022-09-15T11:54:45.133Z,18.19
2022-09-15T11:57:18.047Z,17.86
2022-09-15T12:00:05.166Z,17.78
2022-09-15T12:02:42.834Z,17.67
2022-09-15T12:05:24.819Z,17.64
2022-09-15T12:07:58.732Z,17.75
2022-09-15T12:10:35.539Z,17.79
2022-09-15T12:13:02.554Z,17.77
2022-09-15T12:15:29.366Z,17.75
2022-09-15T12:18:34.311Z,17.93
2022-09-15T12:21:02.033Z,18.06
2022-09-15T12:23:42.170Z,18.00
2022-09-15T12:26:16.110Z,17.99
2022-09-15T12:29:22.574Z,18.15
2022-09-15T12:31:49.037Z,18.09
2022-09-15T12:35:01.166Z,17.96
2022-09-15T12:37:47.268Z,17.95
2022-09-15T12:40:39.081Z,17.86
2022-09-15T12:43:12.633Z,17.86
2022-09-15T12:45:41.155Z,17.85
2022-09-15T12:48:16.611Z,17.86
2022-09-15T12:50:44.268Z,17.71
2022-09-15T12:53:29.081Z,17.62
2022-09-15T12:56:07.000Z,17.60
2022-09-15T12:58:36.727Z,17.64
2022-09-15T13:01:19.120Z,17.67
2022-09-15T13:03:45.892Z,17.63
2022-09-15T13:06:31.182Z,17.64
2022-09-15T13:09:06.436Z,17.76
2022-09-15T13:14:16.679Z,17.84
2022-09-15T13:17:04.088Z,17.66
2022-09-15T13:19:33.222Z,17.65
2022-09-15T13:22:36.296Z,17.65
2022-09-15T13:25:13.888Z,17.77
2022-09-15T13:27:50.472Z,17.73
2022-09-15T13:30:41.196Z,17.71
2022-09-15T13:39:53.803Z,17.67
2022-09-15T13:42:44.880Z,17.66
2022-09-15T13:45:29.517Z,17.59
2022-09-15T13:47:58.720Z,17.41
2022-09-15T13:50:49.093Z,17.29
2022-09-15T13:53:24.267Z,17.29
2022-09-15T13:55:51.818Z,17.36
2022-09-15T14:01:12.443Z,17.48
2022-09-15T14:03:38.864Z,17.52
2022-09-15T14:06:35.574Z,17.78
2022-09-15T14:09:08.589Z,18.06
2022-09-15T14:11:36.587Z,18.08
2022-09-15T14:14:04.352Z,17.90
2022-09-15T14:16:36.177Z,17.54
2022-09-15T14:19:24.532Z,17.45
2022-09-15T14:21:53.764Z,17.60
2022-09-15T14:24:30.098Z,17.56
2022-09-15T14:27:03.347Z,17.70
2022-09-15T14:29:30.068Z,17.84
2022-09-15T14:32:00.766Z,17.99
2022-09-15T14:34:31.158Z,17.87
2022-09-15T14:37:12.947Z,17.74
2022-09-15T14:39:40.460Z,18.01
2022-09-15T14:42:30.949Z,18.16
2022-09-15T14:48:16.621Z,18.49
2022-09-15T14:50:44.636Z,18.44
2022-09-15T14:53:18.894Z,18.29
2022-09-15T14:55:56.795Z,18.17
2022-09-15T14:58:24.459Z,18.07
2022-09-15T15:00:59.386Z,17.87
2022-09-15T15:03:28.503Z,17.98
2022-09-15T15:06:12.756Z,18.03
2022-09-15T15:09:00.355Z,18.13
2022-09-15T15:11:28.013Z,18.08
2022-09-15T15:13:55.125Z,18.02
2022-09-15T15:16:29.944Z,18.05
2022-09-15T15:18:57.252Z,18.10
2022-09-15T15:21:38.696Z,18.11
2022-09-15T15:24:13.697Z,18.01
2022-09-15T15:26:42.397Z,17.86
2022-09-15T15:29:45.507Z,17.81
2022-09-15T15:32:21.233Z,17.59
2022-09-15T15:34:54.547Z,17.28
2022-09-15T15:37:27.907Z,17.11
2022-09-15T15:39:56.299Z,17.13
2022-09-15T15:42:24.057Z,17.04
2022-09-15T15:45:16.556Z,16.90
2022-09-15T15:47:43.032Z,16.77
2022-09-15T15:50:13.686Z,16.77
2022-09-15T15:52:41.789Z,16.80
2022-09-15T15:55:08.530Z,16.67
2022-09-15T15:57:38.185Z,16.65
2022-09-15T16:00:16.557Z,16.74
2022-09-15T16:02:46.429Z,16.70
2022-09-15T16:05:13.647Z,16.63
2022-09-15T16:07:40.691Z,16.66
2022-09-15T16:10:08.516Z,16.54
2022-09-15T16:12:35.589Z,16.47
2022-09-15T16:15:02.935Z,16.45
2022-09-15T16:17:29.532Z,16.49
2022-09-15T16:19:56.075Z,16.48
2022-09-15T16:22:22.509Z,16.44
2022-09-15T16:24:48.985Z,16.29
2022-09-15T16:27:17.783Z,16.36
2022-09-15T16:29:45.344Z,16.33
2022-09-15T16:32:18.656Z,16.27
2022-09-15T16:34:45.498Z,16.22
2022-09-15T16:37:12.474Z,16.23
2022-09-15T16:39:39.044Z,16.19
2022-09-15T16:42:05.865Z,16.30
2022-09-15T16:44:32.747Z,16.18
2022-09-15T16:46:59.573Z,16.04
2022-09-15T16:49:26.156Z,15.92
2022-09-15T16:51:53.057Z,15.86
2022-09-15T16:54:23.116Z,15.85
2022-09-15T16:56:49.558Z,15.82
2022-09-15T16:59:16.277Z,15.74
2022-09-15T17:01:42.894Z,15.65
2022-09-15T17:04:13.922Z,15.58
2022-09-15T17:06:40.363Z,15.60
2022-09-15T17:09:06.942Z,15.65
2022-09-15T17:11:33.460Z,15.60
2022-09-15T17:14:00.526Z,15.53
2022-09-15T17:16:27.318Z,15.36
2022-09-15T17:18:53.809Z,15.26
2022-09-15T17:21:20.516Z,15.34
2022-09-15T17:23:49.204Z,15.30
2022-09-15T17:26:20.085Z,15.15
2022-09-15T17:28:47.089Z,15.13
2022-09-15T17:31:16.656Z,15.14
2022-09-15T17:33:44.096Z,15.18
2022-09-15T17:36:10.943Z,15.05
2022-09-15T17:38:37.372Z,15.09
2022-09-15T17:41:03.875Z,15.03
2022-09-15T17:43:31.793Z,14.95
2022-09-15T17:45:58.444Z,14.93
2022-09-15T17:48:25.417Z,14.88
2022-09-15T17:50:52.432Z,14.86
2022-09-15T17:53:24.172Z,14.78
2022-09-15T17:55:50.995Z,14.75
2022-09-15T17:58:18.337Z,14.75
2022-09-15T18:00:46.115Z,14.68
2022-09-15T18:03:30.952Z,14.72
2022-09-15T18:05:59.002Z,14.66
2022-09-15T18:08:26.291Z,14.56
2022-09-15T18:10:52.802Z,14.56
2022-09-15T18:13:21.646Z,14.54
2022-09-15T18:15:51.554Z,14.52
2022-09-15T18:18:24.155Z,14.43
2022-09-15T18:20:52.956Z,14.48
2022-09-15T18:23:24.252Z,14.40
2022-09-15T18:25:50.957Z,14.39
2022-09-15T18:28:18.218Z,14.56
2022-09-15T18:30:47.466Z,14.56
2022-09-15T18:33:22.229Z,14.47
2022-09-15T18:35:50.430Z,14.42
2022-09-15T18:38:17.576Z,14.42
2022-09-15T18:40:49.271Z,14.46
2022-09-15T18:43:16.639Z,14.43
2022-09-15T18:45:43.131Z,14.29
2022-09-15T18:48:12.912Z,14.27
2022-09-15T18:50:40.727Z,14.24
2022-09-15T18:53:07.446Z,14.19
2022-09-15T18:55:33.920Z,14.16
2022-09-15T18:58:01.247Z,14.11
2022-09-15T19:00:29.445Z,14.12
2022-09-15T19:03:00.568Z,14.08
2022-09-15T19:05:28.533Z,14.07
2022-09-15T19:07:55.373Z,14.06
2022-09-15T19:10:22.162Z,14.08
2022-09-15T19:12:48.662Z,14.10
2022-09-15T19:15:15.777Z,14.08
2022-09-15T19:17:42.903Z,14.10
2022-09-15T19:20:11.747Z,14.10
2022-09-15T19:22:38.398Z,14.07
2022-09-15T19:25:06.087Z,14.05
2022-09-15T19:27:32.738Z,14.07
2022-09-15T19:29:59.958Z,14.06
2022-09-15T19:32:27.045Z,14.06
2022-09-15T19:34:53.561Z,14.01
2022-09-15T19:37:21.447Z,13.95
2022-09-15T19:39:48.781Z,14.08
2022-09-15T19:44:47.901Z,14.03
2022-09-15T19:47:14.628Z,14.01
2022-09-15T19:49:41.096Z,13.93
2022-09-15T19:52:07.816Z,13.99
2022-09-15T19:54:34.721Z,13.93
2022-09-15T19:57:01.636Z,13.88
2022-09-15T19:59:31.371Z,13.86
2022-09-15T20:01:59.518Z,13.86
2022-09-15T20:04:26.454Z,13.79
2022-09-15T20:06:52.998Z,13.84
2022-09-15T20:09:19.444Z,13.75
2022-09-15T20:11:45.976Z,13.73
2022-09-15T20:14:12.468Z,13.70
2022-09-15T20:16:39.339Z,13.66
2022-09-15T20:19:06.120Z,13.68
2022-09-15T20:21:51.123Z,13.61
2022-09-15T20:24:19.595Z,13.55
2022-09-15T20:26:46.242Z,13.63
2022-09-15T20:29:13.208Z,13.56
2022-09-15T20:31:40.173Z,13.40
2022-09-15T20:34:06.667Z,13.36
2022-09-15T20:36:36.388Z,13.38
2022-09-15T20:39:04.936Z,13.27
2022-09-15T20:41:32.234Z,13.29
2022-09-15T20:43:59.081Z,13.19
2022-09-15T20:46:26.060Z,13.17
2022-09-15T20:48:52.790Z,13.15
2022-09-15T20:51:22.813Z,13.12
2022-09-15T20:53:51.830Z,13.06
2022-09-15T20:56:21.155Z,13.09
2022-09-15T20:58:48.056Z,13.05
2022-09-15T21:01:16.655Z,12.91
2022-09-15T21:03:44.485Z,12.88
2022-09-15T21:06:13.023Z,12.83
2022-09-15T21:08:39.915Z,12.86
2022-09-15T21:11:10.640Z,12.80
2022-09-15T21:13:38.690Z,12.66
2022-09-15T21:16:08.169Z,12.57
2022-09-15T21:18:39.186Z,12.45
2022-09-15T21:21:07.991Z,12.41
2022-09-15T21:23:42.693Z,12.38
2022-09-15T21:26:17.269Z,12.35
2022-09-15T21:28:44.952Z,12.30
2022-09-15T21:31:14.980Z,12.34
2022-09-15T21:33:42.256Z,12.21
2022-09-15T21:36:17.398Z,12.13
2022-09-15T21:38:44.346Z,12.07
2022-09-15T21:41:13.760Z,12.12
2022-09-15T21:43:41.961Z,12.09
2022-09-15T21:46:11.780Z,12.02
2022-09-15T21:48:38.612Z,12.04
2022-09-15T21:51:05.972Z,11.91
2022-09-15T21:53:33.875Z,11.83
2022-09-15T21:56:05.560Z,11.78
2022-09-15T21:58:37.930Z,11.74
2022-09-15T22:01:29.870Z,11.69
2022-09-15T22:03:59.163Z,11.68
2022-09-15T22:06:30.528Z,11.64
2022-09-15T22:08:58.772Z,11.64
2022-09-15T22:11:25.283Z,11.48
2022-09-15T22:13:51.787Z,11.58
2022-09-15T22:16:21.296Z,11.43
2022-09-15T22:18:47.914Z,11.37
2022-09-15T22:21:19.669Z,11.37
2022-09-15T22:23:47.798Z,11.36
2022-09-15T22:26:19.073Z,11.32
2022-09-15T22:28:45.827Z,11.29
2022-09-15T22:31:13.809Z,11.34
2022-09-15T22:33:43.117Z,11.33
2022-09-15T22:36:11.642Z,11.36
2022-09-15T22:38:38.710Z,11.32
2022-09-15T22:41:08.950Z,11.31
2022-09-15T22:43:36.299Z,11.29
2022-09-15T22:46:04.873Z,11.33
2022-09-15T22:48:32.299Z,11.30
2022-09-15T22:50:59.249Z,11.25
2022-09-15T22:53:25.927Z,11.24
2022-09-15T22:55:53.468Z,11.28
2022-09-15T22:58:19.930Z,11.22
2022-09-15T23:00:46.493Z,11.25
2022-09-15T23:03:13.333Z,11.26
2022-09-15T23:05:39.823Z,11.30
2022-09-15T23:08:06.294Z,11.31
2022-09-15T23:10:33.240Z,11.34
2022-09-15T23:12:59.870Z,11.22
2022-09-15T23:15:26.518Z,11.16
2022-09-15T23:17:53.082Z,11.08
2022-09-15T23:20:19.484Z,11.05
2022-09-15T23:22:45.952Z,11.05
2022-09-15T23:25:12.523Z,10.98
2022-09-15T23:27:38.996Z,10.95
2022-09-15T23:30:05.745Z,10.89
2022-09-15T23:32:32.357Z,10.86
2022-09-15T23:34:58.775Z,10.80
2022-09-15T23:37:25.273Z,10.87
2022-09-15T23:39:52.340Z,10.90
2022-09-15T23:42:19.198Z,10.85
2022-09-15T23:44:45.784Z,10.74
2022-09-15T23:47:12.209Z,10.66
2022-09-15T23:49:38.630Z,10.60
2022-09-15T23:52:05.040Z,10.57
2022-09-15T23:54:32.316Z,10.56
2022-09-15T23:56:58.761Z,10.52
2022-09-15T23:59:25.266Z,10.51
